Time;durP1;ratioP1;P1;durP2;ratioP2;P2;SDS_P1;SDS_P2;PMS_P1;PMS_P2;Temp;Humidity;BMP_temperature;BMP_pressure;BME280_temperature;BME280_humidity;BME280_pressure;Samples;Min_cycle;Max_cycle;Signal;HPM_P1;HPM_P2
2021/12/09 00:00:43;;;;;;;28.43;13.70;;;4.80;99.90;;;;;;4906457;29;20282;-73
2021/12/09 00:03:13;;;;;;;25.83;13.43;;;4.80;99.90;;;;;;4910624;29;20202;-74
2021/12/09 00:05:45;;;;;;;25.27;13.40;;;4.90;99.90;;;;;;4920991;29;20234;-73
2021/12/09 00:08:12;;;;;;;28.70;14.37;;;4.90;99.90;;;;;;4905947;29;20615;-73
2021/12/09 00:10:40;;;;;;;29.53;13.23;;;4.90;99.90;;;;;;4914563;29;20202;-74
2021/12/09 00:13:07;;;;;;;28.80;13.73;;;4.80;99.90;;;;;;4904337;29;20200;-73
2021/12/09 00:15:35;;;;;;;29.23;13.13;;;4.70;99.90;;;;;;4902067;29;21584;-73
2021/12/09 00:18:02;;;;;;;29.10;13.93;;;4.60;99.90;;;;;;4899600;29;20204;-74
2021/12/09 00:20:29;;;;;;;28.10;12.77;;;4.50;99.90;;;;;;4905806;29;20220;-72
2021/12/09 00:22:59;;;;;;;23.83;13.00;;;4.40;99.90;;;;;;4911747;29;20213;-75
2021/12/09 00:25:27;;;;;;;28.67;13.07;;;4.40;99.90;;;;;;4904195;29;20231;-73
2021/12/09 00:27:53;;;;;;;27.07;13.23;;;4.40;99.90;;;;;;4904369;29;20197;-74
2021/12/09 00:30:20;;;;;;;27.57;13.40;;;4.30;99.90;;;;;;4908562;29;20207;-73
2021/12/09 00:32:49;;;;;;;27.53;13.60;;;4.20;99.90;;;;;;4910620;29;20198;-73
2021/12/09 00:35:19;;;;;;;26.57;12.60;;;4.10;99.90;;;;;;4905841;29;20275;-75
2021/12/09 00:38:00;;;;;;;26.23;12.97;;;4.10;99.90;;;;;;4907987;29;20211;-73
2021/12/09 00:40:27;;;;;;;29.23;12.83;;;4.30;99.90;;;;;;4911274;29;20679;-75
2021/12/09 00:42:53;;;;;;;25.70;12.90;;;4.10;99.90;;;;;;4908229;29;20214;-74
2021/12/09 00:45:21;;;;;;;33.17;13.33;;;4.00;99.90;;;;;;4909953;29;20229;-73
2021/12/09 00:47:48;;;;;;;25.90;12.37;;;3.90;99.90;;;;;;4912329;29;20203;-73
2021/12/09 00:50:15;;;;;;;29.80;13.77;;;4.00;99.90;;;;;;4907677;29;20280;-74
2021/12/09 00:52:42;;;;;;;28.00;13.13;;;3.90;99.90;;;;;;4894986;29;20208;-71
2021/12/09 00:55:09;;;;;;;32.03;13.87;;;3.90;99.90;;;;;;4909590;29;20229;-73
2021/12/09 00:57:38;;;;;;;28.27;13.53;;;3.90;99.90;;;;;;4907550;29;20207;-74
2021/12/09 01:00:12;;;;;;;26.97;12.97;;;3.80;99.90;;;;;;4906809;29;20274;-75
2021/12/09 01:02:39;;;;;;;26.93;12.57;;;3.90;99.90;;;;;;4911703;29;20204;-74
2021/12/09 01:05:07;;;;;;;28.13;13.50;;;3.90;99.90;;;;;;4911476;29;20238;-74
2021/12/09 01:07:36;;;;;;;27.63;12.73;;;3.90;99.90;;;;;;4905203;29;20255;-75
2021/12/09 01:10:05;;;;;;;24.93;11.97;;;3.80;99.90;;;;;;4907688;29;20207;-74
2021/12/09 01:12:32;;;;;;;33.47;12.93;;;3.80;99.90;;;;;;4908512;29;20207;-73
2021/12/09 01:14:59;;;;;;;28.63;13.57;;;3.80;99.90;;;;;;4894968;29;20231;-73
2021/12/09 01:17:26;;;;;;;45.63;12.70;;;4.00;99.90;;;;;;4909330;29;20284;-73
2021/12/09 01:19:53;;;;;;;28.03;12.60;;;3.70;99.90;;;;;;4919718;29;20225;-74
2021/12/09 01:22:26;;;;;;;26.67;12.57;;;3.60;99.90;;;;;;4905867;29;20687;-73
2021/12/09 01:24:53;;;;;;;28.53;12.27;;;3.60;99.90;;;;;;4891752;29;20229;-71
2021/12/09 01:27:19;;;;;;;32.03;13.33;;;3.60;99.90;;;;;;4910729;29;20203;-75
2021/12/09 01:29:52;;;;;;;29.43;13.30;;;3.70;99.90;;;;;;4898535;29;20200;-73
2021/12/09 01:32:26;;;;;;;29.30;13.07;;;3.80;99.90;;;;;;4909030;29;20210;-73
2021/12/09 01:34:53;;;;;;;28.13;13.03;;;3.80;99.90;;;;;;4909506;29;20203;-73
2021/12/09 01:37:20;;;;;;;36.53;12.73;;;3.80;99.90;;;;;;4908907;29;20205;-74
2021/12/09 01:39:46;;;;;;;22.50;11.57;;;3.70;99.90;;;;;;4898244;29;20211;-75
2021/12/09 01:42:13;;;;;;;33.30;11.70;;;3.70;99.90;;;;;;4906904;29;20204;-73
2021/12/09 01:44:39;;;;;;;87.53;11.30;;;3.70;99.90;;;;;;4902944;29;20263;-74
2021/12/09 01:47:06;;;;;;;22.20;10.37;;;3.60;99.90;;;;;;4893188;29;20559;-73
2021/12/09 01:49:33;;;;;;;49.27;10.00;;;3.60;99.90;;;;;;4899498;29;20196;-74
2021/12/09 01:52:00;;;;;;;37.17;9.40;;;3.50;99.90;;;;;;4902011;29;20196;-73
2021/12/09 01:54:27;;;;;;;29.37;10.27;;;3.50;99.90;;;;;;4902585;29;20201;-74
2021/12/09 01:56:53;;;;;;;32.40;9.23;;;3.50;99.90;;;;;;4889225;29;20275;-75
2021/12/09 01:59:20;;;;;;;21.50;9.40;;;3.40;99.90;;;;;;4908935;29;20196;-72
2021/12/09 02:01:47;;;;;;;18.57;8.27;;;3.40;99.90;;;;;;4908827;29;20634;-73
2021/12/09 02:04:14;;;;;;;33.83;8.53;;;3.30;99.90;;;;;;4905158;29;20200;-74
2021/12/09 02:06:42;;;;;;;18.77;7.67;;;3.30;99.90;;;;;;4908810;29;20230;-74
2021/12/09 02:09:12;;;;;;;23.07;8.50;;;3.20;99.90;;;;;;4910991;29;20609;-74
2021/12/09 02:11:40;;;;;;;22.90;7.53;;;3.20;99.90;;;;;;4899617;29;20265;-75
2021/12/09 02:14:08;;;;;;;18.97;7.43;;;3.30;99.90;;;;;;4906661;29;20199;-74
2021/12/09 02:16:35;;;;;;;16.10;7.53;;;3.30;99.90;;;;;;4914145;29;20223;-73
2021/12/09 02:19:03;;;;;;;24.13;7.70;;;3.30;99.90;;;;;;4891155;29;20203;-73
2021/12/09 02:21:33;;;;;;;31.80;7.23;;;3.40;99.90;;;;;;4909185;29;20203;-73
2021/12/09 02:24:06;;;;;;;20.73;7.43;;;3.10;99.90;;;;;;4910737;29;20207;-73
2021/12/09 02:26:37;;;;;;;13.63;6.60;;;3.20;99.90;;;;;;4909422;29;20723;-74
2021/12/09 02:29:05;;;;;;;32.67;6.90;;;3.10;99.90;;;;;;4904912;29;20203;-73
2021/12/09 02:31:33;;;;;;;17.90;6.63;;;3.10;99.90;;;;;;4914813;29;20211;-73
2021/12/09 02:34:01;;;;;;;11.77;6.63;;;3.20;99.90;;;;;;4911203;29;20191;-74
2021/12/09 02:36:30;;;;;;;20.03;6.50;;;3.10;99.90;;;;;;4912854;29;20230;-74
2021/12/09 02:38:57;;;;;;;14.23;7.07;;;3.10;99.90;;;;;;4913986;29;20195;-74
2021/12/09 02:41:26;;;;;;;14.03;6.73;;;3.10;99.90;;;;;;4898830;29;20640;-73
2021/12/09 02:43:56;;;;;;;14.00;6.50;;;3.10;99.90;;;;;;4908929;29;20203;-76
2021/12/09 02:46:25;;;;;;;13.70;6.87;;;3.00;99.90;;;;;;4906608;29;20285;-73
2021/12/09 02:48:52;;;;;;;13.23;6.37;;;3.00;99.90;;;;;;4909342;29;20219;-73
2021/12/09 02:51:18;;;;;;;13.73;6.40;;;2.90;99.90;;;;;;4914188;29;20601;-73
2021/12/09 02:53:45;;;;;;;16.20;6.83;;;2.90;99.90;;;;;;4911755;29;20207;-73
2021/12/09 02:56:14;;;;;;;13.07;7.07;;;2.90;99.90;;;;;;4907700;29;20314;-73
2021/12/09 02:58:41;;;;;;;11.43;6.67;;;2.90;99.90;;;;;;4902976;29;20214;-73
2021/12/09 03:01:49;;;;;;;15.90;6.83;;;3.00;99.90;;;;;;4895047;29;20204;-75
2021/12/09 03:04:16;;;;;;;14.83;6.67;;;2.80;99.90;;;;;;4903898;29;20263;-74
2021/12/09 03:06:43;;;;;;;16.63;7.33;;;2.80;99.90;;;;;;4907332;29;20643;-73
2021/12/09 03:09:17;;;;;;;14.97;7.50;;;2.80;99.90;;;;;;4899932;29;20232;-72
2021/12/09 03:11:48;;;;;;;19.87;7.63;;;2.90;99.90;;;;;;4890497;29;20647;-73
2021/12/09 03:14:20;;;;;;;13.30;7.20;;;2.90;99.90;;;;;;4909484;29;20289;-73
2021/12/09 03:16:46;;;;;;;15.77;7.50;;;2.80;99.90;;;;;;4902063;29;20275;-74
2021/12/09 03:19:13;;;;;;;21.00;7.07;;;2.80;99.90;;;;;;4903953;29;20230;-73
2021/12/09 03:21:43;;;;;;;17.83;7.30;;;2.80;99.90;;;;;;4909536;29;20211;-73
2021/12/09 03:24:14;;;;;;;18.03;7.10;;;2.90;99.90;;;;;;4909503;29;20212;-73
2021/12/09 03:26:46;;;;;;;17.70;7.53;;;2.70;99.90;;;;;;4906523;29;20267;-73
2021/12/09 03:29:15;;;;;;;14.50;7.17;;;2.70;99.90;;;;;;4908468;29;20195;-73
2021/12/09 03:31:44;;;;;;;14.20;6.77;;;2.90;99.90;;;;;;4907082;29;20201;-73
2021/12/09 03:34:13;;;;;;;14.23;7.17;;;2.90;99.90;;;;;;4896567;29;20250;-74
2021/12/09 03:36:41;;;;;;;16.80;7.17;;;2.90;99.90;;;;;;4903221;29;20612;-74
2021/12/09 03:39:15;;;;;;;23.30;7.10;;;3.10;99.90;;;;;;4907008;29;20207;-73
2021/12/09 03:41:44;;;;;;;18.63;6.93;;;3.00;99.90;;;;;;4909138;29;20484;-73
2021/12/09 03:44:10;;;;;;;15.77;6.83;;;3.10;99.90;;;;;;4911396;29;20199;-73
2021/12/09 03:46:38;;;;;;;14.67;6.90;;;3.10;99.90;;;;;;4909699;29;20227;-74
2021/12/09 03:49:05;;;;;;;16.13;7.17;;;3.10;99.90;;;;;;4905041;29;20255;-73
2021/12/09 03:51:35;;;;;;;16.10;7.47;;;3.10;99.90;;;;;;4912386;29;20208;-73
2021/12/09 03:54:07;;;;;;;16.13;7.23;;;3.10;99.90;;;;;;4911285;29;20198;-73
2021/12/09 03:56:35;;;;;;;14.40;7.40;;;3.10;99.90;;;;;;4911163;29;20219;-74
2021/12/09 03:59:04;;;;;;;17.93;7.80;;;3.20;99.90;;;;;;4900239;29;20200;-73
2021/12/09 04:01:32;;;;;;;16.57;7.60;;;3.20;99.90;;;;;;4909254;29;20204;-73
2021/12/09 04:03:59;;;;;;;14.77;7.80;;;3.10;99.90;;;;;;4912845;29;20201;-73
2021/12/09 04:06:29;;;;;;;18.70;7.07;;;3.10;99.90;;;;;;4913137;29;20223;-74
2021/12/09 04:08:57;;;;;;;14.93;7.30;;;3.10;99.90;;;;;;4904995;29;20211;-73
2021/12/09 04:11:24;;;;;;;15.27;7.27;;;2.90;99.90;;;;;;4910121;29;20266;-74
2021/12/09 04:13:51;;;;;;;15.60;7.07;;;2.90;99.90;;;;;;4906461;29;20659;-72
2021/12/09 04:16:18;;;;;;;20.07;7.90;;;2.80;99.90;;;;;;4911427;29;20222;-73
2021/12/09 04:18:45;;;;;;;15.07;7.47;;;2.80;99.90;;;;;;4905070;29;20208;-73
2021/12/09 04:21:12;;;;;;;17.13;6.80;;;2.80;99.90;;;;;;4905289;29;20636;-73
2021/12/09 04:23:39;;;;;;;13.60;7.10;;;2.70;99.90;;;;;;4910649;29;20196;-73
2021/12/09 04:26:07;;;;;;;15.57;6.93;;;2.60;99.90;;;;;;4903067;29;20231;-73
2021/12/09 04:28:35;;;;;;;14.43;6.83;;;2.50;99.90;;;;;;4903046;29;20199;-73
2021/12/09 04:31:03;;;;;;;14.03;6.33;;;2.60;99.90;;;;;;4906543;29;20252;-74
2021/12/09 04:33:30;;;;;;;16.57;7.07;;;2.50;99.90;;;;;;4906595;29;20204;-73
2021/12/09 04:35:57;;;;;;;11.23;5.93;;;2.40;99.90;;;;;;4898769;29;20677;-73
2021/12/09 04:38:24;;;;;;;14.80;6.80;;;2.50;99.90;;;;;;4909847;29;20240;-74
2021/12/09 04:40:51;;;;;;;10.17;5.60;;;2.40;99.90;;;;;;4907790;29;20203;-73
2021/12/09 04:43:18;;;;;;;11.80;6.10;;;2.40;99.90;;;;;;4907580;29;20242;-73
2021/12/09 04:45:46;;;;;;;11.07;5.53;;;2.20;99.90;;;;;;4908241;29;20242;-73
2021/12/09 04:48:12;;;;;;;10.83;6.27;;;2.10;99.90;;;;;;4910448;29;21518;-73
2021/12/09 04:50:42;;;;;;;10.63;5.47;;;2.10;99.90;;;;;;4911325;29;20199;-74
2021/12/09 04:53:10;;;;;;;11.23;5.60;;;2.00;99.90;;;;;;4903936;29;20199;-71
2021/12/09 04:55:37;;;;;;;11.00;5.70;;;2.10;99.90;;;;;;4900170;29;20230;-73
2021/12/09 04:58:07;;;;;;;13.13;5.77;;;2.10;99.90;;;;;;4911194;29;20201;-73
2021/12/09 05:00:37;;;;;;;10.13;5.30;;;2.10;99.90;;;;;;4893279;29;20566;-74
2021/12/09 05:03:09;;;;;;;10.80;5.63;;;2.10;99.90;;;;;;4907436;29;20218;-73
2021/12/09 05:05:56;;;;;;;9.70;5.37;;;2.20;99.90;;;;;;4911075;29;20310;-74
2021/12/09 05:08:27;;;;;;;10.87;5.00;;;2.30;99.90;;;;;;4908394;29;20250;-73
2021/12/09 05:13:26;;;;;;;7.37;5.10;;;2.30;99.90;;;;;;4908866;29;20253;-73
2021/12/09 05:15:54;;;;;;;11.03;5.40;;;2.30;99.90;;;;;;4908378;29;20233;-73
2021/12/09 05:18:24;;;;;;;9.87;5.17;;;2.20;99.90;;;;;;4909751;29;20262;-73
2021/12/09 05:20:51;;;;;;;10.13;5.20;;;2.20;99.90;;;;;;4928440;29;20217;-73
2021/12/09 05:23:19;;;;;;;10.80;5.07;;;2.30;99.90;;;;;;4909773;29;20218;-73
2021/12/09 05:25:46;;;;;;;12.70;5.70;;;2.30;99.90;;;;;;4890345;29;20239;-73
2021/12/09 05:28:16;;;;;;;10.63;5.70;;;2.40;99.90;;;;;;4903071;29;20668;-73
2021/12/09 05:33:31;;;;;;;11.63;5.43;;;2.60;99.90;;;;;;4905537;29;20752;-72
2021/12/09 05:35:58;;;;;;;10.23;5.73;;;2.70;99.90;;;;;;4899792;29;20231;-73
2021/12/09 05:38:25;;;;;;;16.60;6.20;;;2.70;99.90;;;;;;4908367;29;20707;-73
2021/12/09 05:40:53;;;;;;;11.87;6.53;;;2.70;99.90;;;;;;4910508;29;20199;-73
2021/12/09 05:43:20;;;;;;;11.13;5.70;;;2.70;99.90;;;;;;4910971;29;20203;-73
2021/12/09 05:45:48;;;;;;;12.00;5.57;;;2.60;99.90;;;;;;4894565;29;20228;-75
2021/12/09 05:48:15;;;;;;;11.97;6.50;;;2.60;99.90;;;;;;4923315;29;20712;-73
2021/12/09 05:50:42;;;;;;;11.27;5.90;;;2.60;99.90;;;;;;4899459;29;20549;-73
2021/12/09 05:53:09;;;;;;;11.37;5.67;;;2.60;99.90;;;;;;4914526;29;20195;-73
2021/12/09 05:55:35;;;;;;;13.47;6.00;;;2.60;99.90;;;;;;4902460;29;20216;-73
2021/12/09 05:58:02;;;;;;;12.93;6.13;;;2.50;99.90;;;;;;4904937;29;20659;-73
2021/12/09 06:00:29;;;;;;;11.90;5.80;;;2.40;99.90;;;;;;4910408;29;20663;-73
2021/12/09 06:02:56;;;;;;;11.07;5.37;;;2.30;99.90;;;;;;4912410;29;20200;-73
2021/12/09 06:05:24;;;;;;;8.97;5.43;;;2.30;99.90;;;;;;4901568;29;20220;-73
2021/12/09 06:07:50;;;;;;;10.50;5.43;;;2.20;99.90;;;;;;4912141;29;20219;-74
2021/12/09 06:10:17;;;;;;;13.73;5.97;;;2.20;99.90;;;;;;4908988;29;20655;-73
2021/12/09 06:12:44;;;;;;;10.33;5.57;;;2.30;99.90;;;;;;4913112;29;20209;-74
2021/12/09 06:15:11;;;;;;;16.87;6.37;;;2.40;99.90;;;;;;4908301;29;20230;-74
2021/12/09 06:17:37;;;;;;;10.23;5.13;;;2.40;99.90;;;;;;4911324;29;20630;-74
2021/12/09 06:20:05;;;;;;;11.90;6.03;;;2.40;99.90;;;;;;4911754;29;20215;-73
2021/12/09 06:22:32;;;;;;;11.53;6.53;;;2.40;99.90;;;;;;4908153;29;20588;-73
2021/12/09 06:24:59;;;;;;;11.13;6.37;;;2.50;99.90;;;;;;4912685;29;20226;-73
2021/12/09 06:27:26;;;;;;;14.40;5.80;;;2.60;99.90;;;;;;4913667;29;20220;-73
2021/12/09 06:29:53;;;;;;;13.43;5.97;;;2.60;99.90;;;;;;4895884;29;20290;-73
2021/12/09 06:32:19;;;;;;;12.33;6.07;;;2.60;99.90;;;;;;4912561;29;20202;-73
2021/12/09 06:34:46;;;;;;;12.03;6.03;;;2.60;99.90;;;;;;4907060;29;20203;-73
2021/12/09 06:37:13;;;;;;;11.17;5.67;;;2.50;99.90;;;;;;4913400;29;20201;-73
2021/12/09 06:39:40;;;;;;;12.13;5.60;;;2.40;99.90;;;;;;4911891;29;20210;-74
2021/12/09 06:42:08;;;;;;;17.03;5.57;;;2.40;99.90;;;;;;4907589;29;21279;-73
2021/12/09 06:44:35;;;;;;;10.90;5.90;;;2.20;99.90;;;;;;4910841;29;20203;-73
2021/12/09 06:47:02;;;;;;;12.50;5.90;;;2.10;99.90;;;;;;4913987;29;20219;-73
2021/12/09 06:49:29;;;;;;;14.40;5.37;;;1.90;99.90;;;;;;4908386;29;20248;-74
2021/12/09 06:51:55;;;;;;;9.50;5.27;;;1.80;99.90;;;;;;4895851;29;20206;-73
2021/12/09 06:54:22;;;;;;;9.57;4.83;;;1.70;99.90;;;;;;4909854;29;20195;-74
2021/12/09 06:56:49;;;;;;;11.10;4.50;;;1.60;99.90;;;;;;4906957;29;20231;-74
2021/12/09 06:59:15;;;;;;;13.97;5.47;;;1.50;99.90;;;;;;4902123;29;20238;-74
2021/12/09 07:01:42;;;;;;;15.50;5.10;;;1.50;99.90;;;;;;4900942;29;20967;-74
2021/12/09 07:04:09;;;;;;;8.90;4.87;;;1.40;99.90;;;;;;4900622;29;20209;-73
2021/12/09 07:06:37;;;;;;;8.40;5.00;;;1.40;99.90;;;;;;4901275;29;20219;-74
2021/12/09 07:09:04;;;;;;;10.20;5.50;;;1.30;99.90;;;;;;4902266;29;20201;-73
2021/12/09 07:11:37;;;;;;;13.17;5.43;;;1.30;99.90;;;;;;4908470;29;20208;-74
2021/12/09 07:14:05;;;;;;;9.70;4.97;;;1.30;99.90;;;;;;4901397;29;20652;-73
2021/12/09 07:16:31;;;;;;;10.40;5.30;;;1.20;99.90;;;;;;4908746;29;20251;-74
2021/12/09 07:19:00;;;;;;;11.40;5.60;;;1.20;99.90;;;;;;4909576;29;20210;-72
2021/12/09 07:21:26;;;;;;;10.70;5.73;;;1.30;99.90;;;;;;4910084;29;20768;-72
2021/12/09 07:23:53;;;;;;;12.20;5.50;;;1.50;99.90;;;;;;4891417;29;20608;-73
2021/12/09 07:26:20;;;;;;;9.30;5.17;;;1.60;99.90;;;;;;4898220;29;20233;-73
2021/12/09 07:28:46;;;;;;;13.30;5.97;;;1.50;99.90;;;;;;4903627;29;20211;-73
2021/12/09 07:31:15;;;;;;;10.60;4.80;;;1.40;99.90;;;;;;4900212;29;20221;-74
2021/12/09 07:33:42;;;;;;;12.37;5.70;;;1.50;99.90;;;;;;4900005;29;20311;-75
2021/12/09 07:36:09;;;;;;;12.03;5.97;;;1.60;99.90;;;;;;4900133;29;20233;-73
2021/12/09 07:38:36;;;;;;;10.17;5.47;;;1.50;99.90;;;;;;4900596;29;20398;-74
2021/12/09 07:41:03;;;;;;;11.93;6.30;;;1.30;99.90;;;;;;4901278;29;20216;-73
2021/12/09 07:43:30;;;;;;;12.07;5.90;;;1.40;99.90;;;;;;4902386;29;20230;-76
2021/12/09 07:45:58;;;;;;;12.87;5.93;;;1.40;99.90;;;;;;4901225;29;20260;-73
2021/12/09 07:48:25;;;;;;;13.23;5.67;;;1.60;99.90;;;;;;4902724;29;20235;-74
2021/12/09 07:50:52;;;;;;;10.20;5.23;;;1.80;99.90;;;;;;4902527;29;20279;-74
2021/12/09 07:53:20;;;;;;;13.60;5.73;;;1.90;99.90;;;;;;4900806;29;20213;-75
2021/12/09 07:55:47;;;;;;;16.00;6.23;;;2.00;99.90;;;;;;4903231;29;20589;-72
2021/12/09 07:58:14;;;;;;;12.30;5.93;;;2.10;99.90;;;;;;4903298;29;20209;-74
2021/12/09 08:00:41;;;;;;;11.63;5.57;;;2.20;99.90;;;;;;4899626;29;20201;-75
2021/12/09 08:03:08;;;;;;;13.90;6.23;;;2.30;99.90;;;;;;4901238;29;20205;-73
2021/12/09 08:05:39;;;;;;;14.50;5.83;;;2.20;99.90;;;;;;4900918;29;20256;-74
2021/12/09 08:08:06;;;;;;;10.63;6.00;;;2.20;99.90;;;;;;4902889;29;20353;-75
2021/12/09 08:10:34;;;;;;;9.63;5.63;;;2.20;99.90;;;;;;4902453;29;20212;-72
2021/12/09 08:13:01;;;;;;;10.67;5.83;;;2.30;99.90;;;;;;4901766;29;20694;-73
2021/12/09 08:15:33;;;;;;;12.77;6.03;;;2.30;99.90;;;;;;4891870;29;20242;-74
2021/12/09 08:21:03;;;;;;;10.63;5.43;;;2.60;99.90;;;;;;4893682;29;20246;-74
2021/12/09 08:23:30;;;;;;;13.67;5.87;;;2.70;99.90;;;;;;4890444;29;20266;-75
2021/12/09 08:25:57;;;;;;;13.93;6.63;;;2.80;99.90;;;;;;4902098;29;20231;-73
2021/12/09 08:28:24;;;;;;;16.10;6.90;;;2.80;99.90;;;;;;4899770;29;21766;-74
2021/12/09 08:30:52;;;;;;;11.93;6.53;;;2.90;99.90;;;;;;4900467;29;20690;-74
2021/12/09 08:33:21;;;;;;;15.30;7.43;;;2.90;99.90;;;;;;4904074;29;20199;-74
2021/12/09 08:35:48;;;;;;;20.10;7.70;;;2.90;99.90;;;;;;4899092;29;20710;-74
2021/12/09 08:38:16;;;;;;;15.73;6.70;;;2.90;99.90;;;;;;4901268;29;20216;-75
2021/12/09 08:40:43;;;;;;;16.77;7.07;;;3.00;99.90;;;;;;4900743;29;20215;-73
2021/12/09 08:43:10;;;;;;;14.67;6.20;;;2.90;99.90;;;;;;4889393;29;20207;-77
2021/12/09 08:45:38;;;;;;;11.70;6.50;;;2.90;99.90;;;;;;4901625;29;20227;-73
2021/12/09 08:48:05;;;;;;;12.17;6.23;;;2.90;99.90;;;;;;4901836;29;20215;-75
2021/12/09 08:50:33;;;;;;;12.83;5.87;;;2.90;99.90;;;;;;4900447;29;20199;-72
2021/12/09 08:53:05;;;;;;;12.47;5.77;;;3.00;99.90;;;;;;4902169;29;20203;-74
2021/12/09 08:55:32;;;;;;;8.93;5.47;;;3.10;99.90;;;;;;4907536;29;20355;-72
2021/12/09 08:57:59;;;;;;;14.17;5.83;;;3.10;99.90;;;;;;4907279;29;20203;-73
2021/12/09 09:00:28;;;;;;;9.17;5.50;;;3.00;99.90;;;;;;4908978;29;20587;-71
2021/12/09 09:02:57;;;;;;;10.60;5.77;;;3.00;99.90;;;;;;4907201;29;20199;-71
2021/12/09 09:05:25;;;;;;;14.70;5.93;;;3.10;99.90;;;;;;4906914;29;21143;-72
2021/12/09 09:07:52;;;;;;;12.60;5.40;;;3.20;99.90;;;;;;4909915;29;20244;-71
2021/12/09 09:10:22;;;;;;;15.43;5.60;;;3.20;99.90;;;;;;4907981;29;20207;-71
2021/12/09 09:12:50;;;;;;;13.43;5.33;;;3.30;99.90;;;;;;4908072;29;20211;-72
2021/12/09 09:15:21;;;;;;;10.73;5.50;;;3.40;99.90;;;;;;4903244;29;20225;-75
2021/12/09 09:17:48;;;;;;;13.03;5.17;;;3.50;99.90;;;;;;4907526;29;20683;-74
2021/12/09 09:20:16;;;;;;;13.20;5.30;;;3.50;99.90;;;;;;4894800;29;20204;-74
2021/12/09 09:22:45;;;;;;;11.53;5.20;;;3.60;99.90;;;;;;4895312;29;20240;-75
2021/12/09 09:25:17;;;;;;;10.50;5.87;;;3.70;99.90;;;;;;4904150;29;20234;-73
2021/12/09 09:27:45;;;;;;;11.03;5.63;;;3.80;99.90;;;;;;4905455;29;20232;-73
2021/12/09 09:30:17;;;;;;;13.17;6.10;;;3.70;99.90;;;;;;4892568;29;20679;-74
2021/12/09 09:32:49;;;;;;;10.37;5.50;;;3.70;99.90;;;;;;4890428;29;21071;-74
2021/12/09 09:35:17;;;;;;;10.27;5.57;;;3.70;99.90;;;;;;4900775;29;20223;-75
2021/12/09 09:37:44;;;;;;;10.57;5.57;;;3.80;99.90;;;;;;4905636;29;20208;-75
2021/12/09 09:40:14;;;;;;;8.30;5.13;;;4.00;99.90;;;;;;4902253;29;20668;-76
2021/12/09 09:45:11;;;;;;;10.07;5.10;;;4.30;99.90;;;;;;4904035;29;20232;-72
2021/12/09 09:47:39;;;;;;;9.90;4.90;;;4.40;99.90;;;;;;4902197;29;20382;-76
2021/12/09 09:50:09;;;;;;;10.87;4.27;;;4.60;99.90;;;;;;4903694;29;20202;-74
2021/12/09 09:52:36;;;;;;;9.23;4.43;;;4.70;99.90;;;;;;4914257;29;20205;-74
2021/12/09 09:55:08;;;;;;;10.57;4.33;;;4.80;99.90;;;;;;4902537;29;20246;-75
2021/12/09 09:57:36;;;;;;;9.33;4.27;;;4.80;99.90;;;;;;4903434;29;20210;-73
2021/12/09 10:00:09;;;;;;;10.13;4.20;;;4.80;99.90;;;;;;4902208;29;20579;-72
2021/12/09 10:02:37;;;;;;;6.90;3.87;;;4.80;99.90;;;;;;4903615;29;20207;-74
2021/12/09 10:05:06;;;;;;;6.47;4.23;;;4.70;99.90;;;;;;4901746;29;20275;-74
2021/12/09 10:07:34;;;;;;;9.40;4.63;;;4.80;99.90;;;;;;4902763;29;20638;-71
2021/12/09 10:10:02;;;;;;;10.10;5.10;;;5.00;99.90;;;;;;4903495;29;20195;-75
2021/12/09 10:12:29;;;;;;;7.73;4.20;;;5.10;99.90;;;;;;4904540;29;20674;-73
2021/12/09 10:14:56;;;;;;;5.87;3.70;;;5.20;99.90;;;;;;4901728;29;20811;-75
2021/12/09 10:17:28;;;;;;;8.50;4.23;;;5.40;99.90;;;;;;4903442;29;20210;-74
2021/12/09 10:20:09;;;;;;;9.10;4.30;;;5.30;99.90;;;;;;4902567;29;20221;-75
2021/12/09 10:22:36;;;;;;;7.67;4.20;;;5.50;99.90;;;;;;4904468;29;20226;-72
2021/12/09 10:25:20;;;;;;;7.97;4.47;;;5.70;99.90;;;;;;4903086;29;20234;-72
2021/12/09 10:27:58;;;;;;;9.90;4.07;;;5.80;99.90;;;;;;4899078;29;20231;-69
2021/12/09 10:30:24;;;;;;;9.77;4.33;;;5.90;99.90;;;;;;4889643;29;20210;-72
2021/12/09 10:33:02;;;;;;;8.20;4.23;;;6.00;99.90;;;;;;4903459;29;20201;-72
2021/12/09 10:35:29;;;;;;;6.97;4.03;;;6.00;99.90;;;;;;4903109;29;20235;-73
2021/12/09 10:37:56;;;;;;;7.97;4.00;;;6.10;99.90;;;;;;4901754;29;20207;-74
2021/12/09 10:40:30;;;;;;;8.43;4.07;;;6.10;99.90;;;;;;4905247;29;20216;-73
2021/12/09 10:43:01;;;;;;;10.03;4.13;;;6.10;99.90;;;;;;4902774;29;20216;-72
2021/12/09 10:45:33;;;;;;;7.97;4.77;;;6.20;99.90;;;;;;4901108;29;20250;-74
2021/12/09 10:48:25;;;;;;;12.23;4.07;;;6.10;99.90;;;;;;4900599;29;20222;-74
2021/12/09 10:51:24;;;;;;;7.40;3.97;;;5.90;99.90;;;;;;4901853;29;20221;-73
2021/12/09 10:53:54;;;;;;;9.67;3.93;;;5.90;99.90;;;;;;4891382;29;20206;-70
2021/12/09 10:56:30;;;;;;;7.53;4.40;;;5.90;99.90;;;;;;4900548;29;20250;-71
2021/12/09 10:58:57;;;;;;;5.73;3.67;;;6.00;99.90;;;;;;4904016;29;20214;-72
2021/12/09 11:01:25;;;;;;;8.47;3.97;;;6.10;99.90;;;;;;4904771;29;20203;-72
2021/12/09 11:03:56;;;;;;;9.33;4.33;;;6.20;99.90;;;;;;4898598;29;20207;-72
2021/12/09 11:06:23;;;;;;;10.20;4.60;;;6.10;99.90;;;;;;4909118;29;20231;-71
2021/12/09 11:08:54;;;;;;;8.37;3.80;;;6.00;99.90;;;;;;4911694;29;20227;-72
2021/12/09 11:11:33;;;;;;;7.40;3.90;;;6.00;99.90;;;;;;4910458;29;20209;-75
2021/12/09 11:14:03;;;;;;;6.87;3.83;;;6.00;99.90;;;;;;4910086;29;20309;-72
2021/12/09 11:16:49;;;;;;;8.73;4.30;;;5.90;99.90;;;;;;4904813;29;20219;-73
2021/12/09 11:22:03;;;;;;;7.17;4.10;;;5.90;99.90;;;;;;4906283;29;20199;-75
2021/12/09 11:24:38;;;;;;;9.53;4.77;;;6.20;99.90;;;;;;4903871;29;20227;-73
2021/12/09 11:27:13;;;;;;;8.53;4.23;;;6.30;99.90;;;;;;4907752;29;20207;-74
2021/12/09 11:29:50;;;;;;;8.37;4.57;;;6.30;99.90;;;;;;4909303;29;20206;-74
2021/12/09 11:35:09;;;;;;;8.20;3.80;;;6.10;99.90;;;;;;4904056;29;20212;-72
2021/12/09 11:37:45;;;;;;;9.47;3.87;;;6.10;99.90;;;;;;4908453;29;20204;-74
2021/12/09 11:40:38;;;;;;;9.67;4.17;;;6.20;99.90;;;;;;4909060;29;20876;-74
2021/12/09 11:43:07;;;;;;;5.80;3.03;;;6.00;99.90;;;;;;4909512;29;20211;-72
2021/12/09 11:45:37;;;;;;;9.00;3.00;;;6.10;99.90;;;;;;4907613;29;20228;-77
2021/12/09 11:48:07;;;;;;;6.80;3.53;;;6.20;99.90;;;;;;4908524;29;20235;-74
2021/12/09 11:50:43;;;;;;;7.07;3.00;;;6.10;99.90;;;;;;4904892;29;20231;-74
2021/12/09 11:53:13;;;;;;;7.43;3.30;;;6.00;99.90;;;;;;4901709;29;20195;-72
2021/12/09 11:55:45;;;;;;;6.33;3.00;;;5.80;99.90;;;;;;4903923;29;20222;-76
2021/12/09 11:58:25;;;;;;;7.07;3.03;;;6.00;99.90;;;;;;4906020;29;20229;-74
2021/12/09 12:15:48;;;;;;;6.37;2.50;;;6.50;99.90;;;;;;4901577;29;20711;-72
2021/12/09 12:23:37;;;;;;;7.67;3.60;;;6.80;99.90;;;;;;4902703;29;20683;-72
2021/12/09 12:29:00;;;;;;;11.47;3.07;;;6.60;99.90;;;;;;4906448;29;20234;-71
2021/12/09 12:31:59;;;;;;;7.93;3.17;;;6.50;99.90;;;;;;4905557;29;20301;-73
2021/12/09 12:40:18;;;;;;;5.00;2.97;;;6.60;99.90;;;;;;4905656;29;20215;-73
2021/12/09 12:45:36;;;;;;;7.47;2.70;;;6.70;99.90;;;;;;4904400;29;20230;-74
2021/12/09 12:48:32;;;;;;;4.70;2.87;;;6.70;99.90;;;;;;4905224;29;20228;-72
2021/12/09 12:51:17;;;;;;;6.93;2.63;;;6.80;99.90;;;;;;4905168;29;20710;-72
2021/12/09 12:53:48;;;;;;;5.13;2.43;;;6.80;99.90;;;;;;4904837;29;20296;-72
2021/12/09 12:56:16;;;;;;;7.30;3.00;;;6.80;99.90;;;;;;4891109;29;20222;-73
2021/12/09 12:59:13;;;;;;;7.63;2.70;;;6.70;99.90;;;;;;4901479;29;20215;-72
2021/12/09 13:02:02;;;;;;;6.10;2.53;;;6.70;99.90;;;;;;4905550;29;20212;-73
2021/12/09 13:05:03;;;;;;;5.63;2.53;;;6.70;99.90;;;;;;4901817;29;20343;-74
2021/12/09 13:07:37;;;;;;;5.53;3.03;;;6.80;99.90;;;;;;4905778;29;20210;-73
2021/12/09 13:10:25;;;;;;;5.30;2.50;;;6.80;99.90;;;;;;4900949;29;20298;-75
2021/12/09 13:13:07;;;;;;;7.60;2.33;;;6.70;99.90;;;;;;4911150;29;20243;-73
2021/12/09 13:15:49;;;;;;;6.87;2.70;;;6.60;99.90;;;;;;4909402;29;20663;-74
2021/12/09 13:18:44;;;;;;;6.87;2.50;;;6.60;99.90;;;;;;4910844;29;20203;-71
2021/12/09 13:21:39;;;;;;;3.33;2.40;;;6.60;99.90;;;;;;4909214;29;20215;-73
2021/12/09 13:27:17;;;;;;;5.47;2.60;;;6.70;99.90;;;;;;4906417;29;20208;-77
2021/12/09 13:30:05;;;;;;;7.27;2.90;;;6.70;99.90;;;;;;4907124;29;20296;-70
2021/12/09 13:32:57;;;;;;;4.70;2.70;;;6.70;99.90;;;;;;4904661;29;20201;-72
2021/12/09 13:47:03;;;;;;;5.90;3.23;;;6.70;99.90;;;;;;4899154;29;20235;-74
2021/12/09 13:49:51;;;;;;;6.77;3.37;;;6.60;99.90;;;;;;4904172;29;20231;-74
2021/12/09 13:55:29;;;;;;;8.07;3.60;;;6.50;99.90;;;;;;4903443;29;20905;-74
2021/12/09 13:58:02;;;;;;;6.40;3.40;;;6.60;99.90;;;;;;4906463;29;20227;-72
2021/12/09 14:00:35;;;;;;;6.63;3.50;;;6.50;99.90;;;;;;4904935;29;20207;-73
2021/12/09 14:03:10;;;;;;;7.43;3.83;;;6.60;99.90;;;;;;4908909;29;20334;-74
2021/12/09 14:05:46;;;;;;;7.60;4.10;;;6.60;99.90;;;;;;4907834;29;20224;-73
2021/12/09 14:08:15;;;;;;;7.87;4.50;;;6.50;99.90;;;;;;4907149;29;20223;-73